Time;durP1;ratioP1;P1;durP2;ratioP2;P2;SDS_P1;SDS_P2;PMS_P1;PMS_P2;Temp;Humidity;BMP_temperature;BMP_pressure;BME280_temperature;BME280_humidity;BME280_pressure;Samples;Min_cycle;Max_cycle;Signal;HPM_P1;HPM_P2
2023/10/25 00:01:01;;;;;;;12.13;7.40;;;;;;;14.37;76.72;94628.47;5104447;28;20236;-65
2023/10/25 00:03:28;;;;;;;15.02;6.97;;;;;;;14.40;76.40;94628.31;5102920;28;20270;-67
2023/10/25 00:05:55;;;;;;;11.90;6.50;;;;;;;14.46;76.40;94627.19;5106158;28;20281;-67
2023/10/25 00:08:21;;;;;;;13.10;6.00;;;;;;;14.47;76.52;94600.72;5102609;28;20319;-68
2023/10/25 00:10:48;;;;;;;12.40;6.63;;;;;;;14.38;76.46;94599.44;5105741;28;20217;-65
2023/10/25 00:13:16;;;;;;;17.17;7.45;;;;;;;14.44;76.11;94593.22;5105461;28;20193;-67
2023/10/25 00:15:43;;;;;;;17.95;7.60;;;;;;;14.45;76.15;94599.97;5104396;28;20205;-67
2023/10/25 00:18:09;;;;;;;11.10;6.60;;;;;;;14.78;74.97;94598.06;5104878;28;20261;-67
2023/10/25 00:20:36;;;;;;;14.63;7.30;;;;;;;14.53;76.01;94600.38;5104221;28;20281;-65
2023/10/25 00:23:03;;;;;;;22.98;6.85;;;;;;;14.37;76.63;94607.19;5103924;28;20205;-65
2023/10/25 00:25:30;;;;;;;17.80;6.82;;;;;;;14.41;76.99;94613.84;5104756;28;20674;-65
2023/10/25 00:27:56;;;;;;;18.27;6.63;;;;;;;14.36;76.96;94608.94;5104525;28;20349;-65
2023/10/25 00:30:25;;;;;;;17.38;7.03;;;;;;;14.45;76.88;94594.88;5104272;28;20306;-67
2023/10/25 00:32:51;;;;;;;13.05;6.28;;;;;;;14.45;76.64;94605.09;5102749;28;20236;-67
2023/10/25 00:35:18;;;;;;;20.15;7.38;;;;;;;14.25;77.37;94598.50;5103246;28;20254;-66
2023/10/25 00:37:45;;;;;;;14.75;6.40;;;;;;;14.25;77.30;94584.00;5104181;28;20254;-65
2023/10/25 00:40:12;;;;;;;21.95;6.78;;;;;;;14.46;76.86;94576.06;5105109;28;20201;-62
2023/10/25 00:42:39;;;;;;;14.10;7.03;;;;;;;14.48;76.90;94589.59;5103848;28;20233;-67
2023/10/25 00:45:06;;;;;;;15.40;7.22;;;;;;;14.32;77.58;94584.47;5101434;28;20301;-67
2023/10/25 00:47:35;;;;;;;11.40;7.28;;;;;;;14.33;77.53;94590.41;5104268;28;20742;-66
2023/10/25 00:50:02;;;;;;;16.70;6.43;;;;;;;14.21;78.05;94587.63;5104435;28;20652;-65
2023/10/25 00:52:29;;;;;;;15.23;6.85;;;;;;;14.27;77.98;94602.63;5103078;28;20225;-67
2023/10/25 00:54:57;;;;;;;14.75;6.93;;;;;;;14.35;77.13;94609.06;5103966;28;20659;-66
2023/10/25 00:57:24;;;;;;;14.90;6.28;;;;;;;14.44;77.41;94603.44;5103928;28;20208;-66
2023/10/25 00:59:52;;;;;;;11.98;6.32;;;;;;;14.45;76.87;94594.88;5103873;28;20255;-66
2023/10/25 01:02:19;;;;;;;20.45;8.23;;;;;;;14.52;76.83;94586.78;5103298;28;20708;-63
2023/10/25 01:04:47;;;;;;;15.43;6.68;;;;;;;14.70;76.19;94574.66;5103207;28;20250;-66
2023/10/25 01:07:13;;;;;;;16.50;6.47;;;;;;;14.62;75.83;94566.59;5103157;28;20233;-66
2023/10/25 01:09:40;;;;;;;12.55;6.97;;;;;;;14.59;76.24;94567.63;5103426;28;20197;-66
2023/10/25 01:12:08;;;;;;;19.25;6.75;;;;;;;14.89;75.22;94562.44;5104023;28;20697;-67
2023/10/25 01:14:34;;;;;;;25.13;6.65;;;;;;;14.77;75.14;94565.75;5103183;28;20201;-67
2023/10/25 01:17:01;;;;;;;10.70;6.03;;;;;;;14.54;76.44;94561.94;5103629;28;20209;-64
2023/10/25 01:19:28;;;;;;;14.55;6.40;;;;;;;14.38;76.80;94563.66;5103767;28;20231;-63
2023/10/25 01:21:56;;;;;;;10.73;5.07;;;;;;;14.43;77.27;94555.78;5104499;28;20279;-67
2023/10/25 01:24:24;;;;;;;14.93;5.88;;;;;;;14.70;75.97;94559.31;5102731;28;20232;-65
2023/10/25 01:26:51;;;;;;;12.65;6.55;;;;;;;14.34;77.19;94561.38;5103340;28;20254;-61
2023/10/25 01:29:17;;;;;;;14.73;6.55;;;;;;;14.52;76.59;94555.25;5106768;28;20421;-66
2023/10/25 01:31:44;;;;;;;24.67;6.10;;;;;;;14.36;76.93;94557.81;5107408;28;20690;-67
2023/10/25 01:34:11;;;;;;;21.58;6.20;;;;;;;14.20;77.56;94565.53;5106655;28;20232;-67
2023/10/25 01:36:38;;;;;;;9.73;5.75;;;;;;;14.16;77.76;94571.72;5105972;28;20895;-66
2023/10/25 01:39:05;;;;;;;11.73;6.22;;;;;;;14.44;77.39;94557.41;5106525;28;20284;-66
2023/10/25 01:41:33;;;;;;;32.33;7.28;;;;;;;14.38;77.21;94567.97;5105341;28;20212;-67
2023/10/25 01:43:59;;;;;;;17.27;7.15;;;;;;;14.16;78.25;94573.44;5106352;28;20260;-66
2023/10/25 01:46:26;;;;;;;12.98;6.40;;;;;;;14.09;78.24;94588.31;5106221;28;20731;-67
2023/10/25 01:48:53;;;;;;;15.32;6.25;;;;;;;14.23;78.22;94585.81;5108508;28;20204;-66
2023/10/25 01:51:19;;;;;;;18.73;6.13;;;;;;;14.18;78.70;94579.28;5107658;28;20229;-70
2023/10/25 01:53:46;;;;;;;10.52;5.38;;;;;;;14.03;78.65;94577.59;5106423;28;20209;-65
2023/10/25 01:56:13;;;;;;;11.38;5.32;;;;;;;14.12;78.18;94583.00;5108412;28;20277;-66
2023/10/25 01:58:41;;;;;;;25.20;7.93;;;;;;;14.32;77.19;94587.03;5106316;28;20200;-68
2023/10/25 02:01:08;;;;;;;18.95;5.80;;;;;;;14.45;77.07;94584.63;5108205;28;20193;-68
2023/10/25 02:03:34;;;;;;;16.00;5.95;;;;;;;14.53;76.82;94590.16;5107548;28;20223;-66
2023/10/25 02:06:11;;;;;;;13.85;5.82;;;;;;;14.21;78.13;94587.63;5107882;28;20693;-68
2023/10/25 02:08:38;;;;;;;14.15;5.55;;;;;;;14.16;78.21;94579.38;5106015;28;20296;-68
2023/10/25 02:11:05;;;;;;;12.25;5.78;;;;;;;14.21;77.92;94577.41;5107606;28;20243;-70
2023/10/25 02:13:32;;;;;;;20.95;5.88;;;;;;;14.25;77.28;94589.09;5107394;28;20297;-69
2023/10/25 02:16:00;;;;;;;12.98;5.70;;;;;;;14.36;77.50;94574.88;5105277;28;20282;-67
2023/10/25 02:18:26;;;;;;;12.65;5.90;;;;;;;14.29;78.04;94572.69;5106556;28;20233;-63
2023/10/25 02:20:53;;;;;;;15.02;5.43;;;;;;;14.16;77.94;94584.47;5107344;28;20219;-68
2023/10/25 02:23:20;;;;;;;21.38;6.78;;;;;;;14.45;76.99;94553.97;5107102;28;20213;-67
2023/10/25 02:25:46;;;;;;;12.20;5.45;;;;;;;14.49;76.29;94546.03;5107761;28;21503;-66
2023/10/25 02:28:13;;;;;;;19.50;5.85;;;;;;;14.28;77.19;94553.16;5107400;28;20200;-68
2023/10/25 02:30:40;;;;;;;12.30;5.55;;;;;;;14.48;76.58;94528.22;5106794;28;20622;-66
2023/10/25 02:33:08;;;;;;;10.50;5.35;;;;;;;14.37;77.03;94525.41;5106514;28;20743;-66
2023/10/25 02:35:34;;;;;;;19.33;5.53;;;;;;;14.23;77.57;94515.97;5106152;28;22133;-67
2023/10/25 02:38:01;;;;;;;15.10;5.68;;;;;;;14.38;77.01;94514.28;5107051;28;20197;-64
2023/10/25 02:40:28;;;;;;;14.10;5.38;;;;;;;14.30;77.57;94499.41;5105847;28;20664;-64
2023/10/25 02:42:55;;;;;;;12.32;5.32;;;;;;;14.37;76.89;94495.56;5106701;28;20205;-68
2023/10/25 02:45:21;;;;;;;23.77;5.82;;;;;;;14.44;76.40;94470.50;5104186;28;20247;-67
2023/10/25 02:47:48;;;;;;;15.27;5.07;;;;;;;14.54;75.72;94469.06;5107329;28;20286;-65
2023/10/25 02:50:16;;;;;;;18.80;4.88;;;;;;;14.63;75.91;94466.78;5103987;28;20228;-66
2023/10/25 02:52:46;;;;;;;14.02;5.85;;;;;;;14.56;76.05;94475.75;5105467;28;20724;-64
2023/10/25 02:55:13;;;;;;;15.65;5.95;;;;;;;14.59;76.02;94474.75;5106350;28;20270;-63
2023/10/25 02:57:39;;;;;;;19.27;5.82;;;;;;;14.73;75.92;94476.47;5106171;28;20205;-68
2023/10/25 03:00:08;;;;;;;11.75;5.72;;;;;;;14.77;75.35;94478.78;5106274;28;20674;-67
2023/10/25 03:02:34;;;;;;;16.73;5.22;;;;;;;14.71;76.21;94479.13;5107798;28;20193;-65
2023/10/25 03:05:01;;;;;;;14.25;5.80;;;;;;;14.88;75.38;94470.44;5106541;28;20250;-68
2023/10/25 03:07:29;;;;;;;8.43;5.13;;;;;;;15.05;74.99;94477.94;5104509;28;20584;-66
2023/10/25 03:09:56;;;;;;;11.27;4.32;;;;;;;15.14;74.18;94471.44;5107140;28;20717;-69
2023/10/25 03:12:23;;;;;;;15.70;5.60;;;;;;;15.01;74.59;94473.09;5106829;28;20676;-67
2023/10/25 03:14:50;;;;;;;16.92;5.75;;;;;;;15.28;74.07;94458.63;5106901;28;20232;-68
2023/10/25 03:17:16;;;;;;;16.08;5.78;;;;;;;15.35;73.46;94462.44;5106921;28;20259;-68
2023/10/25 03:19:43;;;;;;;13.63;5.47;;;;;;;15.40;73.66;94469.84;5105676;28;20197;-64
2023/10/25 03:22:10;;;;;;;12.40;5.75;;;;;;;15.43;73.19;94488.41;5106273;28;20212;-68
2023/10/25 03:24:38;;;;;;;15.80;6.28;;;;;;;15.35;73.56;94472.69;5105013;28;20727;-67
2023/10/25 03:27:07;;;;;;;13.07;5.97;;;;;;;15.17;73.84;94456.72;5106743;28;20285;-67
2023/10/25 03:29:35;;;;;;;15.82;6.85;;;;;;;15.08;74.30;94457.28;5106281;28;20211;-69
2023/10/25 03:32:02;;;;;;;27.02;7.45;;;;;;;15.24;73.62;94452.06;5104984;28;20229;-67
2023/10/25 03:34:29;;;;;;;20.95;5.85;;;;;;;15.27;73.58;94457.00;5106457;28;20221;-67
2023/10/25 03:36:55;;;;;;;19.55;7.18;;;;;;;15.27;73.83;94473.19;5106371;28;20262;-67
2023/10/25 03:39:22;;;;;;;16.02;6.50;;;;;;;15.22;73.64;94480.31;5105989;28;20270;-67
2023/10/25 03:41:50;;;;;;;16.23;7.10;;;;;;;15.42;73.40;94450.09;5105822;28;20619;-68
2023/10/25 03:44:17;;;;;;;23.02;10.90;;;;;;;15.22;73.40;94441.91;5105165;28;21032;-69
2023/10/25 03:46:44;;;;;;;18.67;11.75;;;;;;;15.10;73.63;94450.31;5103379;28;20224;-67
2023/10/25 03:49:10;;;;;;;29.70;13.95;;;;;;;15.08;73.83;94471.84;5105015;28;20677;-65
2023/10/25 03:51:37;;;;;;;17.17;7.90;;;;;;;15.15;73.73;94479.03;5104898;28;20221;-69
2023/10/25 03:54:04;;;;;;;19.98;8.13;;;;;;;15.18;73.63;94457.53;5104649;28;20282;-67
2023/10/25 03:56:30;;;;;;;18.65;8.30;;;;;;;15.11;73.60;94451.16;5103659;28;20263;-64
2023/10/25 03:58:58;;;;;;;28.70;8.77;;;;;;;15.16;73.47;94449.13;5106085;28;20233;-62
2023/10/25 04:01:25;;;;;;;24.80;7.60;;;;;;;15.23;73.09;94445.28;5105359;28;20269;-67
2023/10/25 04:03:52;;;;;;;30.35;14.50;;;;;;;15.06;73.63;94453.19;5105588;28;20284;-70
2023/10/25 04:06:18;;;;;;;29.38;13.20;;;;;;;15.00;74.05;94464.59;5104222;28;20249;-67
2023/10/25 04:08:45;;;;;;;13.77;7.22;;;;;;;15.15;73.33;94447.50;5105518;28;20200;-66
2023/10/25 04:11:12;;;;;;;17.73;7.95;;;;;;;15.03;74.50;94458.47;5104701;28;20197;-69
2023/10/25 04:13:39;;;;;;;15.85;7.03;;;;;;;14.97;74.28;94470.72;5104356;28;20197;-68
2023/10/25 04:16:09;;;;;;;12.52;7.50;;;;;;;14.93;74.64;94465.88;5103132;28;20213;-67
2023/10/25 04:18:36;;;;;;;19.02;7.78;;;;;;;14.94;74.77;94460.66;5104353;28;20311;-67
2023/10/25 04:21:09;;;;;;;21.83;8.30;;;;;;;15.08;74.30;94461.59;5105202;28;20208;-65
2023/10/25 04:23:35;;;;;;;18.88;7.20;;;;;;;15.03;74.37;94463.59;5104444;28;20229;-68
2023/10/25 04:26:06;;;;;;;18.73;7.65;;;;;;;15.00;74.48;94456.94;5103817;28;20208;-68
2023/10/25 04:28:33;;;;;;;17.88;7.57;;;;;;;15.00;74.69;94443.31;5104103;28;20265;-69
2023/10/25 04:31:01;;;;;;;17.08;7.32;;;;;;;14.93;74.40;94453.91;5105580;28;20282;-68
2023/10/25 04:33:29;;;;;;;30.42;8.00;;;;;;;15.10;74.03;94423.91;5105455;28;20782;-66
2023/10/25 04:35:56;;;;;;;11.60;6.78;;;;;;;15.17;73.81;94445.66;5101961;28;20201;-70
2023/10/25 04:38:24;;;;;;;16.05;7.45;;;;;;;15.29;73.45;94415.03;5105688;28;20284;-68
2023/10/25 04:40:51;;;;;;;29.40;13.15;;;;;;;15.14;74.31;94431.31;5105394;28;20209;-68
2023/10/25 04:43:18;;;;;;;18.67;8.82;;;;;;;15.26;73.98;94407.53;5105278;28;20204;-67
2023/10/25 04:45:44;;;;;;;19.42;8.05;;;;;;;15.24;73.87;94411.09;5101913;28;20319;-67
2023/10/25 04:48:11;;;;;;;17.20;7.55;;;;;;;15.33;73.32;94384.94;5103951;28;20215;-68
2023/10/25 04:50:39;;;;;;;23.95;8.45;;;;;;;15.25;74.07;94407.63;5103439;28;20250;-67
2023/10/25 04:53:06;;;;;;;16.58;7.75;;;;;;;15.17;74.64;94414.94;5104184;28;20616;-68
2023/10/25 04:55:34;;;;;;;10.70;6.53;;;;;;;15.23;74.48;94399.22;5105050;28;20269;-67
2023/10/25 04:58:01;;;;;;;23.65;7.47;;;;;;;15.23;74.36;94414.56;5104738;28;20288;-68
2023/10/25 05:00:28;;;;;;;16.65;7.65;;;;;;;15.41;73.98;94390.38;5104929;28;20224;-65
2023/10/25 05:02:55;;;;;;;14.05;7.43;;;;;;;15.28;74.12;94399.75;5103079;28;20209;-68
2023/10/25 05:05:22;;;;;;;18.27;7.70;;;;;;;15.12;74.70;94376.84;5104581;28;20228;-68
2023/10/25 05:07:51;;;;;;;13.63;7.53;;;;;;;15.46;73.15;94383.25;5104974;28;20323;-68
2023/10/25 05:10:19;;;;;;;21.50;8.60;;;;;;;15.32;74.23;94385.84;5104633;28;20212;-68
2023/10/25 05:12:47;;;;;;;14.85;6.93;;;;;;;15.57;73.13;94380.88;5102843;28;20253;-67
2023/10/25 05:15:16;;;;;;;13.73;6.55;;;;;;;15.56;73.17;94381.78;5103919;28;20220;-67
2023/10/25 05:17:44;;;;;;;26.95;7.50;;;;;;;15.43;73.52;94400.53;5104500;28;20266;-68
2023/10/25 05:20:12;;;;;;;23.65;7.63;;;;;;;15.49;73.69;94395.84;5105916;28;20205;-68
2023/10/25 05:22:40;;;;;;;23.67;8.70;;;;;;;15.37;73.71;94406.84;5104307;28;20209;-67
2023/10/25 05:25:10;;;;;;;32.05;7.22;;;;;;;15.22;74.56;94387.34;5101834;28;20221;-69
2023/10/25 05:27:38;;;;;;;22.20;7.30;;;;;;;15.41;73.93;94387.81;5102725;28;20201;-69
2023/10/25 05:30:07;;;;;;;20.30;7.97;;;;;;;15.39;73.82;94384.53;5104430;28;20212;-67
2023/10/25 05:32:36;;;;;;;19.73;7.97;;;;;;;15.41;74.18;94385.25;5104090;28;20235;-68
2023/10/25 05:35:04;;;;;;;32.30;8.95;;;;;;;15.32;74.01;94360.25;5103687;28;20197;-68
2023/10/25 05:37:32;;;;;;;19.30;7.43;;;;;;;15.49;73.91;94385.59;5104489;28;20197;-69
2023/10/25 05:39:59;;;;;;;23.23;7.95;;;;;;;15.65;73.29;94396.53;5104664;28;20200;-62
2023/10/25 05:42:28;;;;;;;28.95;8.27;;;;;;;15.88;72.72;94371.19;5102383;28;20189;-67
2023/10/25 05:44:55;;;;;;;19.73;7.72;;;;;;;15.80;72.91;94394.75;5105723;28;20232;-70
2023/10/25 05:47:22;;;;;;;15.68;7.68;;;;;;;15.87;72.31;94395.97;5102712;28;20708;-69
2023/10/25 05:49:49;;;;;;;26.65;9.15;;;;;;;15.86;72.63;94394.34;5103617;28;20205;-66
2023/10/25 05:52:17;;;;;;;19.88;7.90;;;;;;;15.82;72.71;94408.28;5101929;28;20309;-64
2023/10/25 05:54:44;;;;;;;18.92;8.50;;;;;;;15.85;71.21;94391.88;5103448;28;20201;-64
2023/10/25 05:57:12;;;;;;;29.20;8.68;;;;;;;15.94;71.37;94401.53;5104539;28;20601;-68
2023/10/25 05:59:40;;;;;;;22.35;8.65;;;;;;;15.90;72.02;94423.16;5103718;28;20197;-69
2023/10/25 06:02:10;;;;;;;17.63;8.00;;;;;;;16.04;71.41;94430.78;5104125;28;20209;-68
2023/10/25 06:04:38;;;;;;;24.48;9.23;;;;;;;16.03;71.33;94429.13;5103413;28;20648;-69
2023/10/25 06:07:06;;;;;;;25.83;9.23;;;;;;;16.04;71.19;94425.66;5104733;28;20208;-67
2023/10/25 06:09:33;;;;;;;26.85;11.30;;;;;;;16.20;70.75;94410.91;5102726;28;20197;-67
2023/10/25 06:12:00;;;;;;;38.40;10.25;;;;;;;16.45;69.56;94391.34;5104229;28;20201;-66
2023/10/25 06:14:28;;;;;;;24.58;10.23;;;;;;;16.55;69.48;94389.81;5104543;28;20763;-69
2023/10/25 06:16:56;;;;;;;23.67;9.25;;;;;;;16.54;69.69;94406.94;5108296;28;20201;-70
2023/10/25 06:19:23;;;;;;;30.90;9.48;;;;;;;16.69;69.03;94411.97;5107887;28;20201;-70
2023/10/25 06:21:50;;;;;;;19.13;9.90;;;;;;;16.80;68.63;94417.22;5107732;28;20205;-68
2023/10/25 06:24:17;;;;;;;28.85;10.82;;;;;;;16.95;68.10;94406.72;5105258;28;20247;-66
2023/10/25 06:26:43;;;;;;;29.67;9.60;;;;;;;16.89;68.07;94412.25;5107904;28;20572;-65
2023/10/25 06:29:10;;;;;;;24.40;9.73;;;;;;;16.84;68.07;94404.03;5107692;28;20216;-67
2023/10/25 06:31:37;;;;;;;30.98;11.38;;;;;;;16.73;68.41;94406.53;5107825;28;20224;-67
2023/10/25 06:34:05;;;;;;;16.98;9.77;;;;;;;16.70;68.89;94405.91;5107387;28;20240;-68
2023/10/25 06:36:33;;;;;;;18.77;9.63;;;;;;;16.71;69.49;94413.53;5106978;28;20248;-67
2023/10/25 06:39:04;;;;;;;25.27;10.63;;;;;;;16.91;68.74;94415.53;5106141;28;20200;-61
2023/10/25 06:41:31;;;;;;;31.20;10.23;;;;;;;17.32;67.61;94406.75;5107700;28;20642;-66
2023/10/25 06:43:59;;;;;;;40.63;9.48;;;;;;;17.47;66.09;94403.06;5106239;28;20260;-67
2023/10/25 06:46:26;;;;;;;23.75;8.75;;;;;;;17.28;66.11;94415.56;5106796;28;20295;-69
2023/10/25 06:48:56;;;;;;;23.60;8.32;;;;;;;17.22;66.29;94408.28;5107653;28;20261;-68
2023/10/25 06:51:24;;;;;;;23.95;8.57;;;;;;;17.18;66.25;94399.16;5106850;28;20223;-68
2023/10/25 06:53:52;;;;;;;22.55;8.18;;;;;;;16.99;66.68;94392.75;5106112;28;20278;-68
2023/10/25 06:56:19;;;;;;;30.08;10.50;;;;;;;17.27;66.96;94411.38;5105057;28;20201;-68
2023/10/25 06:58:47;;;;;;;24.52;9.98;;;;;;;17.53;66.34;94415.50;5107143;28;20204;-67
2023/10/25 07:01:17;;;;;;;33.90;9.75;;;;;;;17.72;65.48;94402.19;5107177;28;20284;-69
2023/10/25 07:03:48;;;;;;;26.48;11.10;;;;;;;17.87;65.20;94415.66;5107446;28;20250;-65
2023/10/25 07:06:16;;;;;;;40.40;11.75;;;;;;;18.06;64.50;94410.84;5105523;28;20201;-67
2023/10/25 07:08:44;;;;;;;24.70;9.88;;;;;;;18.28;63.21;94415.22;5106489;28;20209;-69
2023/10/25 07:11:11;;;;;;;31.83;9.55;;;;;;;18.23;62.96;94413.00;5106766;28;20346;-66
2023/10/25 07:13:38;;;;;;;28.42;9.15;;;;;;;18.34;63.12;94435.34;5105795;28;20286;-67
2023/10/25 07:16:06;;;;;;;36.13;9.32;;;;;;;18.51;62.28;94426.38;5102956;28;20244;-66
2023/10/25 07:18:32;;;;;;;28.05;10.70;;;;;;;18.37;62.25;94435.09;5105375;28;20201;-67
2023/10/25 07:20:59;;;;;;;29.63;10.25;;;;;;;18.19;63.29;94436.47;5106564;28;20312;-66
2023/10/25 07:23:26;;;;;;;32.17;9.73;;;;;;;18.38;62.74;94438.50;5105856;28;20238;-66
2023/10/25 07:25:54;;;;;;;43.05;11.30;;;;;;;18.50;63.09;94435.84;5103774;28;20240;-70
2023/10/25 07:28:22;;;;;;;22.90;9.70;;;;;;;18.54;62.20;94446.75;5107083;28;20201;-64
2023/10/25 07:30:49;;;;;;;29.55;9.45;;;;;;;18.39;62.40;94443.53;5106575;28;20312;-66
2023/10/25 07:33:17;;;;;;;28.25;9.82;;;;;;;18.31;62.82;94446.66;5105566;28;20256;-66
2023/10/25 07:35:44;;;;;;;39.13;10.00;;;;;;;18.28;62.78;94439.19;5105463;28;20301;-70
2023/10/25 07:38:10;;;;;;;31.02;10.15;;;;;;;18.32;62.26;94443.16;5106341;28;20193;-67
2023/10/25 07:40:39;;;;;;;27.27;10.15;;;;;;;18.27;62.66;94445.28;5105874;28;20278;-66
2023/10/25 07:43:08;;;;;;;22.80;10.63;;;;;;;18.39;62.60;94443.53;5103316;28;20196;-68
2023/10/25 07:45:34;;;;;;;40.03;10.65;;;;;;;18.42;62.08;94442.50;5104439;28;20236;-65
2023/10/25 07:48:01;;;;;;;24.25;10.40;;;;;;;18.43;62.10;94428.69;5105713;28;20224;-67
2023/10/25 07:50:28;;;;;;;29.45;10.23;;;;;;;18.34;62.45;94446.44;5103278;28;20289;-66
2023/10/25 07:52:54;;;;;;;29.70;11.10;;;;;;;18.31;62.62;94456.94;5104645;28;20600;-67
2023/10/25 07:55:21;;;;;;;26.42;11.18;;;;;;;18.27;62.38;94468.41;5102286;28;20198;-67
2023/10/25 07:57:48;;;;;;;24.55;11.43;;;;;;;18.17;62.89;94451.19;5106397;28;20265;-69
2023/10/25 08:00:16;;;;;;;32.60;10.20;;;;;;;18.26;62.56;94453.09;5105587;28;20285;-65
2023/10/25 08:02:43;;;;;;;28.25;10.57;;;;;;;18.06;62.83;94451.16;5104745;28;20265;-67
2023/10/25 08:05:10;;;;;;;26.85;10.93;;;;;;;18.08;63.23;94452.66;5105487;28;20197;-67
2023/10/25 08:07:37;;;;;;;25.13;10.45;;;;;;;18.12;62.74;94446.38;5105818;28;20286;-65
2023/10/25 08:10:06;;;;;;;26.40;9.50;;;;;;;18.09;62.98;94451.75;5103039;28;20700;-67
2023/10/25 08:12:35;;;;;;;33.55;9.68;;;;;;;18.17;62.70;94459.72;5105117;28;20671;-66
2023/10/25 08:15:02;;;;;;;25.88;10.85;;;;;;;18.32;62.20;94468.88;5104649;28;20223;-66
2023/10/25 08:17:30;;;;;;;43.67;10.95;;;;;;;18.40;61.96;94475.22;5103552;28;20296;-63
2023/10/25 08:19:57;;;;;;;33.20;10.07;;;;;;;18.44;61.94;94474.06;5102293;28;20255;-66
2023/10/25 08:22:24;;;;;;;40.15;9.98;;;;;;;18.57;61.75;94472.22;5102863;28;20235;-69
2023/10/25 08:24:51;;;;;;;34.53;9.77;;;;;;;18.78;60.72;94454.41;5105617;28;20228;-69
2023/10/25 08:27:18;;;;;;;34.80;11.73;;;;;;;19.04;60.20;94471.28;5102871;28;20608;-68
2023/10/25 08:29:45;;;;;;;34.78;9.68;;;;;;;19.18;60.15;94477.94;5101941;28;20259;-68
2023/10/25 08:32:12;;;;;;;36.63;10.93;;;;;;;19.37;59.31;94468.69;5104896;28;20248;-67
2023/10/25 08:34:45;;;;;;;26.88;10.60;;;;;;;19.43;58.78;94485.44;5105063;28;20266;-66
2023/10/25 08:37:11;;;;;;;34.33;10.02;;;;;;;19.54;58.68;94472.59;5104422;28;20201;-66
2023/10/25 08:39:38;;;;;;;46.00;10.27;;;;;;;19.50;58.52;94484.06;5105076;28;20282;-67
2023/10/25 08:42:07;;;;;;;31.65;9.75;;;;;;;19.44;58.99;94483.69;5104708;28;20682;-65
2023/10/25 08:44:39;;;;;;;24.40;7.65;;;;;;;19.45;58.76;94469.84;5104602;28;20709;-69
2023/10/25 08:47:06;;;;;;;27.70;9.10;;;;;;;19.57;58.36;94479.22;5104925;28;20291;-70
2023/10/25 08:49:33;;;;;;;27.48;8.32;;;;;;;19.60;58.11;94479.81;5103647;28;20616;-66
2023/10/25 08:52:03;;;;;;;31.92;9.30;;;;;;;19.85;57.32;94468.38;5102144;28;20305;-67
2023/10/25 08:54:30;;;;;;;40.42;8.23;;;;;;;19.84;56.88;94450.47;5102660;28;20307;-63
2023/10/25 08:56:56;;;;;;;35.63;8.18;;;;;;;20.05;57.07;94469.38;5103541;28;20798;-69
2023/10/25 08:59:23;;;;;;;30.40;7.38;;;;;;;20.07;56.45;94461.50;5104053;28;20201;-70
2023/10/25 09:01:50;;;;;;;26.27;8.57;;;;;;;20.16;55.92;94459.03;5101649;28;20204;-68
2023/10/25 09:04:17;;;;;;;30.77;10.15;;;;;;;20.19;56.04;94461.38;5103263;28;20196;-66
2023/10/25 09:06:43;;;;;;;37.80;7.90;;;;;;;20.40;55.35;94468.34;5103741;28;20201;-67
2023/10/25 09:09:11;;;;;;;18.20;7.68;;;;;;;20.44;55.31;94465.38;5104333;28;20274;-67
2023/10/25 09:11:43;;;;;;;25.27;7.43;;;;;;;20.70;54.55;94460.66;5102018;28;20232;-67
2023/10/25 09:14:11;;;;;;;35.88;7.68;;;;;;;21.03;54.05;94459.63;5102905;28;20217;-69
2023/10/25 09:16:41;;;;;;;40.80;7.68;;;;;;;21.58;52.58;94466.09;5103844;28;20262;-66
2023/10/25 09:19:08;;;;;;;37.28;8.63;;;;;;;21.70;51.48;94472.00;5104207;28;20288;-68
2023/10/25 09:21:35;;;;;;;27.88;7.68;;;;;;;22.00;50.87;94477.13;5104223;28;20209;-69
2023/10/25 09:24:07;;;;;;;46.35;8.55;;;;;;;22.27;50.60;94470.47;5102961;28;20194;-69
2023/10/25 09:26:36;;;;;;;44.95;8.68;;;;;;;22.46;49.60;94474.81;5102874;28;20189;-66
2023/10/25 09:29:03;;;;;;;30.60;6.82;;;;;;;22.50;50.07;94465.81;5103311;28;20195;-68
2023/10/25 09:31:31;;;;;;;38.63;8.20;;;;;;;22.11;49.92;94465.81;5102956;28;20233;-65
2023/10/25 09:34:00;;;;;;;25.80;6.75;;;;;;;21.80;50.60;94461.66;5103936;28;20385;-65
2023/10/25 09:36:27;;;;;;;25.48;7.90;;;;;;;21.82;50.81;94450.22;5102161;28;20209;-64
2023/10/25 09:38:55;;;;;;;23.13;7.20;;;;;;;21.67;51.62;94457.56;5102292;28;20231;-63
2023/10/25 09:41:21;;;;;;;36.35;8.40;;;;;;;21.61;51.37;94429.63;5103778;28;20434;-62
2023/10/25 09:43:52;;;;;;;38.92;9.27;;;;;;;21.95;51.02;94435.28;5103963;28;20261;-63
2023/10/25 09:46:20;;;;;;;35.45;8.35;;;;;;;22.36;48.77;94420.44;5104409;28;20224;-64
2023/10/25 09:48:55;;;;;;;34.60;8.45;;;;;;;22.62;48.05;94423.25;5104136;28;20209;-64
2023/10/25 09:51:33;;;;;;;36.90;10.93;;;;;;;22.95;47.50;94419.41;5106425;28;20295;-62
2023/10/25 09:54:09;;;;;;;29.63;6.90;;;;;;;23.40;46.26;94429.84;5107692;28;20778;-64
2023/10/25 09:56:36;;;;;;;39.80;6.13;;;;;;;23.71;44.78;94423.41;5106436;28;20654;-64
2023/10/25 09:59:06;;;;;;;49.72;8.15;;;;;;;23.93;43.82;94405.78;5107112;28;20243;-64
2023/10/25 10:01:32;;;;;;;40.97;6.95;;;;;;;24.12;43.10;94402.22;5105471;28;20602;-64
2023/10/25 10:04:08;;;;;;;58.63;8.77;;;;;;;24.32;43.17;94401.94;5108662;28;20232;-64
2023/10/25 10:06:40;;;;;;;42.80;7.50;;;;;;;24.42;43.17;94391.47;5106288;28;20353;-64
2023/10/25 10:09:23;;;;;;;40.65;8.10;;;;;;;24.40;43.43;94402.00;5108009;28;20201;-62
2023/10/25 10:11:54;;;;;;;50.63;7.63;;;;;;;24.49;42.71;94396.88;5106874;28;20669;-62
2023/10/25 10:14:40;;;;;;;47.92;8.32;;;;;;;24.35;42.58;94396.44;5106496;28;20314;-63
2023/10/25 10:17:09;;;;;;;36.75;6.70;;;;;;;24.18;43.73;94389.47;5106437;28;20670;-64
2023/10/25 10:19:40;;;;;;;43.30;6.85;;;;;;;24.05;43.87;94378.63;5107581;28;20201;-62
2023/10/25 10:22:09;;;;;;;35.95;8.13;;;;;;;24.12;43.78;94379.66;5106015;28;20281;-63
2023/10/25 10:24:44;;;;;;;39.53;6.00;;;;;;;24.21;43.91;94367.59;5106764;28;20269;-64
2023/10/25 10:27:12;;;;;;;41.50;8.32;;;;;;;24.38;43.60;94377.97;5108144;28;20250;-65
2023/10/25 10:29:44;;;;;;;34.85;6.15;;;;;;;24.45;42.63;94370.38;5106441;28;20266;-62
2023/10/25 10:32:12;;;;;;;49.22;6.88;;;;;;;24.69;42.92;94362.75;5106648;28;20221;-62
2023/10/25 10:34:42;;;;;;;44.92;7.20;;;;;;;24.89;42.03;94346.91;5107304;28;20285;-65
2023/10/25 10:37:10;;;;;;;31.15;6.60;;;;;;;25.17;42.07;94350.16;5106111;28;20205;-65
2023/10/25 10:39:38;;;;;;;39.58;6.50;;;;;;;25.58;40.95;94348.47;5107723;28;20193;-64
2023/10/25 10:42:06;;;;;;;25.45;6.70;;;;;;;25.94;40.66;94341.25;5107031;28;20201;-65
2023/10/25 10:44:36;;;;;;;45.70;7.53;;;;;;;26.01;40.06;94347.41;5107189;28;20358;-66
2023/10/25 10:47:09;;;;;;;44.47;7.18;;;;;;;25.94;40.00;94342.06;5107526;28;20200;-64
2023/10/25 10:49:37;;;;;;;35.58;6.88;;;;;;;25.69;40.18;94327.41;5105988;28;20667;-62
2023/10/25 10:52:06;;;;;;;36.30;7.10;;;;;;;25.47;40.79;94331.41;5105831;28;20197;-65
2023/10/25 10:54:33;;;;;;;48.75;7.53;;;;;;;25.03;41.90;94323.78;5107199;28;20217;-65
2023/10/25 10:57:00;;;;;;;46.47;8.77;;;;;;;24.89;42.53;94326.94;5107582;28;20220;-63
2023/10/25 10:59:28;;;;;;;35.42;6.22;;;;;;;24.82;42.47;94318.13;5104885;28;20685;-64
2023/10/25 11:01:55;;;;;;;51.05;8.52;;;;;;;24.69;42.82;94317.75;5104472;28;20207;-62
2023/10/25 11:04:24;;;;;;;54.22;7.32;;;;;;;24.51;42.96;94311.78;5106239;28;20701;-64
2023/10/25 11:06:50;;;;;;;47.90;6.80;;;;;;;24.44;43.43;94316.00;5106543;27;20209;-63
2023/10/25 11:09:17;;;;;;;38.42;9.43;;;;;;;24.30;43.27;94305.19;5105126;28;20630;-65
2023/10/25 11:11:44;;;;;;;54.13;7.55;;;;;;;24.21;43.51;94306.09;5105368;28;20233;-62
2023/10/25 11:14:11;;;;;;;39.65;8.23;;;;;;;23.96;44.10;94296.50;5104700;28;20651;-62
2023/10/25 11:16:37;;;;;;;39.42;7.38;;;;;;;23.94;44.34;94303.63;5105807;28;20212;-64
2023/10/25 11:19:08;;;;;;;43.38;9.43;;;;;;;23.84;44.75;94302.88;5107118;28;20240;-63
2023/10/25 11:21:37;;;;;;;37.30;6.82;;;;;;;23.73;44.66;94319.50;5106047;28;20577;-63
2023/10/25 11:24:07;;;;;;;41.20;6.82;;;;;;;23.72;45.16;94328.25;5105496;28;20277;-63
2023/10/25 11:26:40;;;;;;;48.13;8.23;;;;;;;23.70;44.78;94336.19;5106691;28;20205;-63